Time;durP1;ratioP1;P1;durP2;ratioP2;P2;SDS_P1;SDS_P2;PMS_P1;PMS_P2;Temp;Humidity;BMP_temperature;BMP_pressure;BME280_temperature;BME280_humidity;BME280_pressure;Samples;Min_cycle;Max_cycle;Signal;HPM_P1;HPM_P2
2022/03/20 00:00:17;;;;;;;16.30;9.05;;;;;;;7.99;36.89;102692.00;5094732;28;20043;-72
2022/03/20 00:02:45;;;;;;;15.88;9.43;;;;;;;7.99;36.84;102690.13;5094491;28;20043;-72
2022/03/20 00:05:14;;;;;;;18.83;9.65;;;;;;;7.92;37.02;102686.56;5088247;28;20048;-73
2022/03/20 00:07:44;;;;;;;18.17;9.18;;;;;;;7.85;37.11;102694.72;5093070;28;20403;-73
2022/03/20 00:10:14;;;;;;;17.80;10.43;;;;;;;7.91;37.71;102687.59;5093428;28;20048;-73
2022/03/20 00:12:42;;;;;;;15.60;9.32;;;;;;;7.80;37.92;102689.91;5094313;28;20052;-72
2022/03/20 00:15:10;;;;;;;16.52;9.00;;;;;;;7.85;37.22;102685.69;5093884;28;20051;-73
2022/03/20 00:17:38;;;;;;;16.60;10.13;;;;;;;7.90;37.71;102699.53;5093700;28;20529;-72
2022/03/20 00:20:07;;;;;;;16.67;9.75;;;;;;;8.01;37.56;102690.75;5094328;28;20118;-72
2022/03/20 00:22:37;;;;;;;16.42;8.93;;;;;;;8.01;37.52;102701.66;5093457;28;20048;-73
2022/03/20 00:25:05;;;;;;;18.20;10.05;;;;;;;8.04;37.27;102694.94;5094183;28;20040;-73
2022/03/20 00:27:33;;;;;;;16.20;9.88;;;;;;;8.00;37.65;102690.94;5093583;28;20063;-72
2022/03/20 00:30:03;;;;;;;18.27;10.52;;;;;;;7.95;37.77;102691.56;5091707;28;20067;-73
2022/03/20 00:32:31;;;;;;;18.48;10.68;;;;;;;7.93;37.87;102694.50;5092693;28;20482;-73
2022/03/20 00:35:00;;;;;;;19.45;10.75;;;;;;;7.92;38.06;102692.84;5093136;28;20626;-72
2022/03/20 00:37:29;;;;;;;23.17;11.13;;;;;;;7.84;38.38;102689.47;5093182;28;20059;-73
2022/03/20 00:39:57;;;;;;;16.48;10.80;;;;;;;7.77;39.17;102695.75;5094033;28;20044;-72
2022/03/20 00:42:26;;;;;;;20.73;11.32;;;;;;;7.78;38.43;102697.44;5093436;28;20052;-73
2022/03/20 00:44:54;;;;;;;22.58;11.43;;;;;;;7.81;38.59;102701.63;5092433;28;20044;-73
2022/03/20 00:47:22;;;;;;;23.45;11.40;;;;;;;7.73;38.39;102704.56;5075414;28;20036;-73
2022/03/20 00:49:50;;;;;;;19.50;11.35;;;;;;;7.78;38.09;102696.63;5092912;28;20059;-73
2022/03/20 00:52:18;;;;;;;19.73;11.43;;;;;;;7.75;39.01;102703.31;5093105;28;20495;-73
2022/03/20 00:54:46;;;;;;;20.48;10.82;;;;;;;7.74;38.78;102700.81;5090659;28;20056;-72
2022/03/20 00:57:14;;;;;;;22.65;10.98;;;;;;;7.80;38.20;102697.25;5089622;28;20517;-72
2022/03/20 00:59:43;;;;;;;18.00;10.43;;;;;;;7.72;38.61;102703.72;5089379;28;20041;-72
2022/03/20 01:02:11;;;;;;;19.67;10.25;;;;;;;7.69;38.31;102695.13;5088400;28;20070;-73
2022/03/20 01:04:39;;;;;;;18.05;10.85;;;;;;;7.75;38.34;102702.47;5092619;28;20067;-73
2022/03/20 01:07:08;;;;;;;20.50;11.32;;;;;;;7.77;38.32;102706.66;5092531;28;20490;-72
2022/03/20 01:09:36;;;;;;;21.00;11.05;;;;;;;7.78;37.96;102702.88;5074135;28;20078;-73
2022/03/20 01:12:06;;;;;;;17.20;10.02;;;;;;;7.79;37.73;102701.84;5092438;28;20052;-73
2022/03/20 01:14:34;;;;;;;20.38;11.75;;;;;;;7.78;38.14;102708.34;5092187;28;20403;-75
2022/03/20 01:17:04;;;;;;;20.20;10.88;;;;;;;7.83;37.86;102704.16;5092467;28;20059;-72
2022/03/20 01:19:32;;;;;;;19.38;10.45;;;;;;;7.78;38.20;102719.25;5093012;28;20075;-73
2022/03/20 01:22:00;;;;;;;19.88;10.88;;;;;;;7.82;38.17;102708.75;5092225;28;20040;-73
2022/03/20 01:24:29;;;;;;;17.58;10.57;;;;;;;7.74;38.88;102706.25;5075126;28;20048;-73
2022/03/20 01:26:57;;;;;;;20.42;10.90;;;;;;;7.72;38.37;102702.91;5092857;28;20051;-73
2022/03/20 01:29:25;;;;;;;19.13;10.95;;;;;;;7.62;38.65;102706.03;5088151;28;20048;-73
2022/03/20 01:31:53;;;;;;;19.00;11.35;;;;;;;7.66;38.17;102707.28;5091714;28;20039;-73
2022/03/20 01:34:21;;;;;;;22.27;11.43;;;;;;;7.65;38.71;102702.88;5092012;28;20055;-73
2022/03/20 01:36:49;;;;;;;21.25;11.13;;;;;;;7.65;38.74;102705.59;5091849;28;20047;-72
2022/03/20 01:39:17;;;;;;;21.00;11.27;;;;;;;7.55;39.90;102699.72;5092695;28;20044;-74
2022/03/20 01:41:47;;;;;;;20.80;10.80;;;;;;;7.42;39.07;102704.09;5091949;28;20059;-72
2022/03/20 01:44:14;;;;;;;20.48;11.68;;;;;;;7.41;39.25;102705.16;5074692;28;20044;-73
2022/03/20 01:46:42;;;;;;;23.73;11.85;;;;;;;7.36;39.45;102692.16;5087026;28;20052;-74
2022/03/20 01:49:11;;;;;;;24.38;11.20;;;;;;;7.33;39.18;102702.63;5092568;28;20045;-75
2022/03/20 01:54:30;;;;;;;21.98;11.32;;;;;;;7.31;39.73;102694.66;5079068;28;20526;-73
2022/03/20 01:56:58;;;;;;;23.55;11.60;;;;;;;7.40;39.16;102696.13;5081821;28;20418;-74
2022/03/20 01:59:26;;;;;;;21.80;11.43;;;;;;;7.39;39.08;102693.63;5077363;28;20051;-74
2022/03/20 02:01:54;;;;;;;18.23;11.05;;;;;;;7.50;39.04;102692.16;5091827;28;20048;-73
2022/03/20 02:04:22;;;;;;;20.73;11.43;;;;;;;7.45;38.82;102698.25;5090958;28;20052;-73
2022/03/20 02:06:50;;;;;;;21.40;11.60;;;;;;;7.52;38.26;102680.03;5091419;28;20059;-73
2022/03/20 02:09:18;;;;;;;19.33;10.60;;;;;;;7.53;38.83;102689.88;5091461;28;20518;-73
2022/03/20 02:11:48;;;;;;;20.33;11.73;;;;;;;7.55;38.47;102683.38;5091064;28;20051;-73
2022/03/20 02:14:16;;;;;;;19.05;10.73;;;;;;;7.45;38.86;102684.63;5074185;28;20051;-73
2022/03/20 02:16:44;;;;;;;17.33;11.40;;;;;;;7.38;39.08;102691.97;5091394;28;20044;-73
2022/03/20 02:19:14;;;;;;;20.60;11.88;;;;;;;7.40;38.62;102692.59;5091162;28;20055;-73
2022/03/20 02:21:44;;;;;;;18.88;10.80;;;;;;;7.36;39.25;102683.97;5072851;28;20036;-73
2022/03/20 02:24:41;;;;;;;21.50;10.90;;;;;;;7.29;39.10;102693.19;5091336;28;20036;-73
2022/03/20 02:27:12;;;;;;;20.98;11.13;;;;;;;7.31;39.11;102691.06;5077645;28;20059;-73
2022/03/20 02:29:41;;;;;;;18.45;11.48;;;;;;;7.40;39.27;102703.47;5074226;28;20048;-73
2022/03/20 02:32:12;;;;;;;19.13;10.40;;;;;;;7.57;38.29;102687.56;5091278;28;20047;-73
2022/03/20 02:34:41;;;;;;;24.50;11.95;;;;;;;7.58;38.77;102685.69;5089178;28;20804;-73
2022/03/20 02:37:10;;;;;;;21.15;11.48;;;;;;;7.61;38.22;102688.00;5090325;28;20051;-73
2022/03/20 02:39:39;;;;;;;16.92;11.13;;;;;;;7.50;38.56;102679.41;5091229;28;20060;-73
2022/03/20 02:42:07;;;;;;;20.08;10.57;;;;;;;7.52;38.57;102688.19;5091164;28;20044;-73
2022/03/20 02:44:54;;;;;;;23.92;11.95;;;;;;;7.61;38.14;102685.25;5091248;28;20059;-73
2022/03/20 02:47:23;;;;;;;23.08;11.95;;;;;;;7.60;38.69;102686.31;5091195;28;20036;-73
2022/03/20 02:50:04;;;;;;;18.40;10.15;;;;;;;7.55;38.45;102683.38;5092018;28;20040;-73
2022/03/20 02:52:47;;;;;;;23.10;11.95;;;;;;;7.65;38.44;102690.13;5090486;28;20533;-73
2022/03/20 02:55:18;;;;;;;22.48;11.23;;;;;;;7.63;38.57;102689.47;5085743;28;20051;-73
2022/03/20 02:57:47;;;;;;;18.52;11.63;;;;;;;7.67;38.06;102687.16;5090785;28;20052;-73
2022/03/20 03:00:21;;;;;;;20.63;10.93;;;;;;;7.65;38.14;102686.53;5072962;28;20052;-73
2022/03/20 03:02:50;;;;;;;20.23;11.55;;;;;;;7.50;38.48;102679.41;5091070;28;20048;-73
2022/03/20 03:05:21;;;;;;;19.38;10.75;;;;;;;7.47;38.74;102695.28;5090958;28;20052;-73
2022/03/20 03:11:01;;;;;;;19.63;10.65;;;;;;;7.43;38.60;102699.50;5094608;28;20063;-73
2022/03/20 03:13:37;;;;;;;19.42;10.40;;;;;;;7.40;38.74;102711.66;5095471;28;20048;-73
2022/03/20 03:16:08;;;;;;;20.77;11.68;;;;;;;7.43;38.87;102702.22;5095727;28;20044;-73
2022/03/20 03:18:37;;;;;;;20.85;11.00;;;;;;;7.42;39.10;102698.66;5093801;28;20043;-73
2022/03/20 03:21:10;;;;;;;20.15;11.93;;;;;;;7.32;38.95;102698.19;5095567;28;20114;-73
2022/03/20 03:23:38;;;;;;;17.75;10.80;;;;;;;7.29;38.97;102712.25;5094302;28;20048;-73
2022/03/20 03:26:06;;;;;;;19.67;11.52;;;;;;;7.33;39.13;102714.34;5094343;28;20044;-73
2022/03/20 03:28:35;;;;;;;20.67;11.38;;;;;;;7.40;38.69;102703.47;5095341;28;20055;-73
2022/03/20 03:31:05;;;;;;;21.40;10.82;;;;;;;7.36;39.42;102707.66;5094064;28;20380;-73
2022/03/20 03:35:41;;;;;;;18.80;10.88;;;;;;;7.47;38.88;102700.75;5095264;28;20048;-73
2022/03/20 03:36:25;;;;;;;19.45;10.35;;;;;;;7.47;39.54;102701.59;5089768;28;20047;-73
2022/03/20 03:38:54;;;;;;;17.77;11.52;;;;;;;7.40;39.05;102700.75;5094165;28;20043;-73
2022/03/20 03:41:23;;;;;;;23.48;12.20;;;;;;;7.50;38.84;102694.91;5076880;28;20720;-73
2022/03/20 03:43:52;;;;;;;21.33;11.45;;;;;;;7.53;39.12;102705.41;5094984;28;20059;-73
2022/03/20 03:46:21;;;;;;;17.50;11.55;;;;;;;7.43;38.87;102708.50;5095088;28;20051;-73
2022/03/20 03:48:49;;;;;;;20.45;11.40;;;;;;;7.48;39.21;102718.78;5092929;28;20052;-73
2022/03/20 03:51:16;;;;;;;19.33;11.45;;;;;;;7.47;39.26;102706.19;5094214;28;20051;-73
2022/03/20 03:53:45;;;;;;;20.83;10.95;;;;;;;7.48;39.26;102707.91;5093447;28;20052;-73
2022/03/20 03:56:13;;;;;;;22.02;11.95;;;;;;;7.45;39.00;102713.75;5093885;28;20040;-73
2022/03/20 03:58:40;;;;;;;20.80;12.13;;;;;;;7.41;39.12;102710.59;5094678;28;20074;-73
2022/03/20 04:01:09;;;;;;;20.08;11.80;;;;;;;7.35;39.71;102715.00;5090342;28;20044;-73
2022/03/20 04:03:37;;;;;;;20.08;11.75;;;;;;;7.31;39.43;102719.16;5086395;28;20521;-73
2022/03/20 04:06:05;;;;;;;19.55;11.38;;;;;;;7.30;39.36;102719.38;5093451;28;20509;-72
2022/03/20 04:08:35;;;;;;;21.30;12.20;;;;;;;7.30;39.47;102724.81;5094578;28;20048;-73
2022/03/20 04:11:03;;;;;;;18.60;11.10;;;;;;;7.32;39.35;102720.84;5094500;28;20506;-73
2022/03/20 04:13:31;;;;;;;19.95;11.38;;;;;;;7.32;39.19;102728.16;5094327;28;20051;-73
2022/03/20 04:15:59;;;;;;;19.30;11.27;;;;;;;7.32;39.70;102720.84;5093680;28;20071;-73
2022/03/20 04:18:27;;;;;;;23.85;12.50;;;;;;;7.45;39.09;102724.66;5076327;28;20059;-73
2022/03/20 04:20:55;;;;;;;21.08;11.80;;;;;;;7.33;39.54;102725.25;5092841;28;20047;-73
2022/03/20 04:26:10;;;;;;;19.48;11.05;;;;;;;7.29;39.74;102720.41;5094341;28;20044;-73
2022/03/20 04:28:38;;;;;;;21.73;11.90;;;;;;;7.29;40.21;102726.72;5093118;28;20040;-74
2022/03/20 04:31:06;;;;;;;19.25;11.27;;;;;;;7.32;39.55;102726.28;5094119;28;20047;-72
2022/03/20 04:33:34;;;;;;;20.17;12.45;;;;;;;7.31;39.52;102724.63;5093895;28;20051;-72
2022/03/20 04:36:02;;;;;;;21.52;12.55;;;;;;;7.23;39.59;102716.59;5086526;28;20052;-73
2022/03/20 04:38:30;;;;;;;21.05;11.15;;;;;;;7.20;39.98;102719.75;5092399;28;20055;-72
2022/03/20 04:40:58;;;;;;;21.42;12.20;;;;;;;7.13;40.12;102728.75;5092616;28;20056;-73
2022/03/20 04:43:27;;;;;;;20.50;12.10;;;;;;;7.11;40.29;102730.00;5092916;28;20056;-72
2022/03/20 04:45:55;;;;;;;18.35;11.18;;;;;;;7.09;39.89;102724.75;5092900;28;20047;-72
2022/03/20 04:59:29;;;;;;;23.20;12.80;;;;;;;7.02;40.05;102725.75;5078799;28;20048;-72
2022/03/20 05:01:59;;;;;;;20.17;11.15;;;;;;;7.10;39.44;102734.59;5092575;28;20518;-73
2022/03/20 05:04:27;;;;;;;18.60;11.70;;;;;;;7.32;38.97;102731.75;5091717;28;20517;-73
2022/03/20 05:06:55;;;;;;;20.15;11.52;;;;;;;7.32;39.18;102741.78;5085128;28;20051;-73
2022/03/20 05:14:58;;;;;;;25.08;12.25;;;;;;;7.17;39.10;102748.22;5093218;28;20040;-73
2022/03/20 05:17:26;;;;;;;20.80;11.50;;;;;;;7.05;39.72;102753.44;5083528;28;20049;-73
2022/03/20 05:19:54;;;;;;;19.92;11.05;;;;;;;7.16;39.65;102754.72;5069882;28;20048;-72
2022/03/20 05:22:22;;;;;;;23.33;11.52;;;;;;;7.15;39.39;102757.66;5084042;28;20048;-73
2022/03/20 05:24:50;;;;;;;21.38;11.65;;;;;;;7.23;39.16;102758.31;5074921;28;20067;-73
2022/03/20 05:27:18;;;;;;;20.58;12.45;;;;;;;7.15;39.40;102760.38;5093099;28;20044;-73
2022/03/20 05:29:46;;;;;;;18.58;11.75;;;;;;;7.21;39.04;102768.59;5078465;28;20052;-73
2022/03/20 05:32:14;;;;;;;21.67;11.73;;;;;;;7.26;39.48;102760.66;5101575;28;20391;-73
2022/03/20 05:34:42;;;;;;;24.35;12.35;;;;;;;7.22;39.16;102763.94;5078458;28;20047;-73
2022/03/20 05:37:11;;;;;;;21.50;11.38;;;;;;;7.26;39.64;102776.13;5092769;28;20048;-73
2022/03/20 05:39:39;;;;;;;22.20;12.88;;;;;;;7.26;39.07;102777.00;5092504;28;20047;-73
2022/03/20 05:42:07;;;;;;;22.88;12.30;;;;;;;7.23;39.36;102781.97;5092563;28;20036;-73
2022/03/20 05:44:35;;;;;;;20.95;11.63;;;;;;;7.24;39.33;102776.31;5073616;28;20438;-73
2022/03/20 05:47:04;;;;;;;20.40;11.98;;;;;;;7.29;39.16;102770.28;5074257;28;20048;-73
2022/03/20 05:49:32;;;;;;;23.63;12.38;;;;;;;7.33;39.00;102770.72;5091799;28;20055;-73
2022/03/20 05:52:00;;;;;;;23.30;11.45;;;;;;;7.45;38.78;102773.69;5091527;28;20073;-73
2022/03/20 05:54:28;;;;;;;21.25;11.18;;;;;;;7.46;38.95;102780.81;5091246;28;20114;-73
2022/03/20 05:59:43;;;;;;;23.65;11.38;;;;;;;7.66;38.19;102779.00;5092438;28;20051;-73
2022/03/20 06:02:12;;;;;;;18.70;11.05;;;;;;;7.67;38.03;102782.53;5091073;28;20048;-73
2022/03/20 06:04:40;;;;;;;24.52;11.32;;;;;;;7.79;38.14;102780.06;5091448;28;20052;-73
2022/03/20 06:07:08;;;;;;;22.58;12.45;;;;;;;7.87;38.16;102777.13;5090988;28;20517;-73
2022/03/20 06:09:37;;;;;;;22.75;12.00;;;;;;;7.92;38.08;102782.00;5090952;28;20044;-73
2022/03/20 06:12:07;;;;;;;19.20;11.55;;;;;;;8.05;37.63;102792.91;5091588;28;20062;-73
2022/03/20 06:14:35;;;;;;;20.42;12.07;;;;;;;8.09;37.51;102785.13;5091211;28;20044;-74
2022/03/20 06:17:05;;;;;;;21.88;12.07;;;;;;;8.18;37.58;102785.78;5057110;28;20040;-73
2022/03/20 06:19:35;;;;;;;20.77;11.88;;;;;;;8.39;37.27;102794.78;5091211;28;20044;-73
2022/03/20 06:22:04;;;;;;;23.35;12.73;;;;;;;8.34;37.55;102793.53;5091568;28;20055;-79
2022/03/20 06:24:32;;;;;;;19.65;11.50;;;;;;;8.49;37.42;102789.75;5091918;28;20059;-77
2022/03/20 06:27:01;;;;;;;20.75;11.30;;;;;;;8.51;37.38;102793.09;5090556;28;20052;-77
2022/03/20 06:29:28;;;;;;;20.88;11.23;;;;;;;8.61;37.44;102792.72;5072953;28;20065;-76
2022/03/20 06:31:57;;;;;;;21.42;11.30;;;;;;;8.62;38.10;102799.00;5081806;28;20044;-75
2022/03/20 06:34:28;;;;;;;20.98;11.75;;;;;;;8.81;37.18;102797.28;5096168;28;20047;-75
2022/03/20 06:36:58;;;;;;;24.70;13.00;;;;;;;8.82;37.35;102799.81;5081389;28;20036;-74
2022/03/20 06:39:26;;;;;;;19.23;11.50;;;;;;;8.97;37.42;102804.19;5074724;28;20049;-75
2022/03/20 06:41:54;;;;;;;20.58;11.88;;;;;;;8.97;36.84;102815.09;5080674;28;20048;-75
2022/03/20 06:44:21;;;;;;;20.60;11.90;;;;;;;8.99;36.91;102805.66;5085271;28;20525;-74
2022/03/20 06:46:50;;;;;;;22.83;11.88;;;;;;;9.09;37.21;102820.75;5086473;28;20048;-75
2022/03/20 06:49:18;;;;;;;24.27;12.73;;;;;;;9.31;36.47;102824.03;5086708;28;20040;-75
2022/03/20 06:51:46;;;;;;;19.20;11.77;;;;;;;9.35;36.71;102827.19;5077396;28;20067;-76
2022/03/20 06:54:15;;;;;;;20.33;11.10;;;;;;;9.48;35.85;102815.38;5086299;28;20036;-75
2022/03/20 06:56:43;;;;;;;20.30;12.52;;;;;;;9.23;36.31;102816.91;5092505;28;20490;-75
2022/03/20 06:59:14;;;;;;;22.35;12.85;;;;;;;9.52;36.18;102819.31;5091646;28;20387;-75
2022/03/20 07:01:42;;;;;;;25.17;12.50;;;;;;;9.61;36.35;102820.75;5085570;28;20529;-75
2022/03/20 07:04:10;;;;;;;21.83;11.70;;;;;;;9.49;36.16;102825.25;5092068;28;20067;-75
2022/03/20 07:06:38;;;;;;;21.58;11.45;;;;;;;9.71;35.62;102822.16;5086120;28;20044;-75
2022/03/20 07:09:06;;;;;;;23.23;12.30;;;;;;;9.80;35.19;102820.88;5092558;28;20051;-75
2022/03/20 07:11:34;;;;;;;21.83;11.65;;;;;;;10.09;35.76;102835.81;5085420;28;20051;-75
2022/03/20 07:14:03;;;;;;;21.90;11.60;;;;;;;10.12;35.21;102822.78;5086087;28;20049;-75
2022/03/20 07:16:33;;;;;;;22.13;12.73;;;;;;;9.84;35.39;102833.06;5082556;28;20059;-78
2022/03/20 07:19:02;;;;;;;18.00;11.55;;;;;;;10.16;36.82;102835.78;5047335;28;20049;-88
2022/03/20 07:21:32;;;;;;;23.27;12.70;;;;;;;10.34;36.24;102842.38;5049823;28;20064;-85
2022/03/20 07:24:02;;;;;;;20.13;12.15;;;;;;;10.29;35.42;102834.00;5035261;28;20059;-86
2022/03/20 07:29:30;;;;;;;18.35;10.50;;;;;;;10.38;35.28;102832.69;5050897;28;20049;-87
2022/03/20 07:31:59;;;;;;;20.67;11.57;;;;;;;10.48;35.76;102843.16;5039239;28;20055;-86
2022/03/20 07:34:27;;;;;;;18.50;11.63;;;;;;;10.45;34.60;102849.91;5065959;28;20052;-86
2022/03/20 07:36:56;;;;;;;21.05;11.63;;;;;;;10.43;34.09;102843.84;5044094;28;20055;-86
2022/03/20 07:39:28;;;;;;;19.15;12.10;;;;;;;10.37;33.41;102844.69;5047650;28;20051;-85
2022/03/20 07:41:58;;;;;;;17.00;10.98;;;;;;;10.28;33.31;102855.06;5058199;28;20048;-86
2022/03/20 07:44:31;;;;;;;19.70;11.60;;;;;;;10.30;33.06;102843.88;5040328;28;20047;-87
2022/03/20 07:46:59;;;;;;;16.80;10.65;;;;;;;10.30;33.79;102843.88;5028541;28;20051;-85
2022/03/20 07:49:28;;;;;;;22.38;11.65;;;;;;;10.36;33.55;102862.16;5046018;28;20503;-85
2022/03/20 07:51:57;;;;;;;18.58;10.65;;;;;;;10.37;34.26;102830.16;5043176;28;20039;-84
2022/03/20 07:54:26;;;;;;;28.90;11.65;;;;;;;10.52;33.71;102833.44;5042919;28;20048;-87
2022/03/20 07:56:54;;;;;;;23.77;11.48;;;;;;;10.59;32.87;102855.25;5038197;28;20048;-88
2022/03/20 07:59:23;;;;;;;25.92;11.57;;;;;;;10.65;32.91;102854.38;5045853;28;20052;-87
2022/03/20 08:01:51;;;;;;;19.40;11.32;;;;;;;10.65;33.65;102846.16;5068647;28;20079;-86
2022/03/20 08:04:20;;;;;;;23.70;12.25;;;;;;;10.65;32.99;102848.88;5042808;28;20044;-85
2022/03/20 08:06:49;;;;;;;22.27;12.63;;;;;;;10.65;33.82;102848.88;5032696;28;20045;-89
2022/03/20 08:09:17;;;;;;;20.73;12.30;;;;;;;10.82;33.59;102832.75;5039889;28;20048;-87
2022/03/20 08:11:45;;;;;;;20.58;10.93;;;;;;;11.07;32.92;102841.94;5041919;28;20044;-86
2022/03/20 08:14:13;;;;;;;24.85;11.88;;;;;;;10.96;32.99;102841.63;5035429;28;20040;-87
2022/03/20 08:16:41;;;;;;;20.52;12.20;;;;;;;11.11;33.10;102856.88;5032864;28;20048;-86
2022/03/20 08:19:11;;;;;;;24.20;12.23;;;;;;;11.11;33.03;102845.91;5027114;28;20043;-86
2022/03/20 08:21:39;;;;;;;23.25;12.70;;;;;;;11.07;33.16;102836.47;5037388;28;20479;-86
2022/03/20 08:24:08;;;;;;;20.05;12.32;;;;;;;11.11;33.40;102846.75;5042877;28;20041;-86
2022/03/20 08:26:36;;;;;;;19.25;11.52;;;;;;;11.13;32.88;102838.31;5087902;28;20479;-86
2022/03/20 08:29:07;;;;;;;20.17;11.52;;;;;;;11.14;32.90;102850.94;5041464;28;20044;-87
2022/03/20 08:31:36;;;;;;;18.90;11.45;;;;;;;11.26;33.08;102837.31;5041239;28;20044;-87
2022/03/20 08:34:05;;;;;;;20.25;11.02;;;;;;;11.10;31.67;102841.50;5042525;28;20040;-86
2022/03/20 08:36:34;;;;;;;18.20;11.40;;;;;;;11.18;32.74;102840.38;5055742;28;20052;-85
2022/03/20 08:39:03;;;;;;;26.60;11.35;;;;;;;11.15;32.53;102833.44;5062684;28;20835;-85
2022/03/20 08:41:32;;;;;;;20.15;11.07;;;;;;;11.32;31.99;102835.56;5089853;28;20383;-78
2022/03/20 08:44:04;;;;;;;18.88;11.40;;;;;;;11.49;32.07;102825.63;5095981;28;20047;-86
2022/03/20 08:46:34;;;;;;;18.67;11.23;;;;;;;11.53;32.31;102835.09;5045976;28;20537;-87
2022/03/20 08:49:07;;;;;;;16.73;11.00;;;;;;;11.44;31.60;102817.25;5048451;28;20052;-89
2022/03/20 08:51:39;;;;;;;20.93;11.63;;;;;;;11.49;32.51;102828.38;5055450;28;20044;-89
2022/03/20 08:54:08;;;;;;;21.10;11.15;;;;;;;11.58;32.72;102841.78;5052284;28;20491;-90
2022/03/20 08:56:37;;;;;;;21.13;11.65;;;;;;;11.67;32.59;102826.66;5046085;28;20513;-89
2022/03/20 08:59:06;;;;;;;22.45;11.60;;;;;;;11.61;32.77;102828.44;5041633;28;20059;-88
2022/03/20 09:01:35;;;;;;;19.20;11.90;;;;;;;11.72;33.26;102835.03;5048412;28;20055;-89
2022/03/20 09:04:04;;;;;;;21.42;11.70;;;;;;;11.63;32.95;102830.97;5059839;28;20482;-87
2022/03/20 09:06:32;;;;;;;22.17;12.50;;;;;;;11.54;33.43;102839.50;5061610;28;20503;-89
2022/03/20 09:09:00;;;;;;;20.63;12.30;;;;;;;11.67;33.24;102824.78;5051237;28;20396;-90
2022/03/20 09:11:28;;;;;;;19.83;10.95;;;;;;;11.67;33.05;102826.66;5040063;28;20406;-90
2022/03/20 09:13:56;;;;;;;26.52;11.75;;;;;;;11.68;32.87;102833.81;5059410;28;20048;-90
2022/03/20 09:19:11;;;;;;;20.45;11.35;;;;;;;11.76;33.06;102830.78;5067289;28;20048;-87
2022/03/20 09:21:39;;;;;;;20.48;11.57;;;;;;;11.76;32.96;102825.28;5066207;28;20040;-90
2022/03/20 09:24:07;;;;;;;18.67;11.75;;;;;;;11.82;32.72;102818.88;5043146;28;20044;-90
2022/03/20 09:26:36;;;;;;;18.98;11.63;;;;;;;11.82;32.37;102818.03;5040800;28;20398;-90
2022/03/20 09:29:04;;;;;;;18.75;12.18;;;;;;;11.92;32.87;102811.97;5051879;28;20044;-89
2022/03/20 09:31:34;;;;;;;17.85;10.55;;;;;;;11.99;32.05;102820.94;5061237;28;20060;-89
2022/03/20 09:34:10;;;;;;;18.20;11.20;;;;;;;11.91;32.09;102826.75;5059165;28;20048;-89
2022/03/20 09:36:38;;;;;;;21.65;11.05;;;;;;;11.91;31.35;102821.28;5042378;28;20048;-89
2022/03/20 09:39:06;;;;;;;16.83;10.55;;;;;;;11.87;30.55;102826.38;5058788;28;20406;-90
2022/03/20 09:41:39;;;;;;;21.73;11.60;;;;;;;11.87;30.78;102829.13;5058837;28;20051;-90
2022/03/20 09:44:08;;;;;;;19.90;10.25;;;;;;;11.94;30.41;102820.81;5059010;28;20048;-90
2022/03/20 09:46:36;;;;;;;19.70;10.55;;;;;;;11.88;30.06;102827.25;5058758;28;20506;-89
2022/03/20 09:49:08;;;;;;;17.85;10.70;;;;;;;11.85;30.22;102817.56;5042403;28;20040;-89
2022/03/20 09:51:39;;;;;;;18.95;10.00;;;;;;;12.11;30.50;102820.19;5058757;28;20082;-90
2022/03/20 09:54:08;;;;;;;19.33;11.43;;;;;;;12.01;30.69;102812.47;5059513;28;20051;-91
2022/03/20 09:56:37;;;;;;;18.48;11.25;;;;;;;12.08;31.26;102814.06;5041500;28;20048;-89
2022/03/20 09:59:05;;;;;;;18.00;10.63;;;;;;;12.13;31.34;102813.38;5074793;28;20028;-89
2022/03/20 10:01:34;;;;;;;18.23;11.73;;;;;;;12.17;30.99;102822.81;5042058;28;20639;-90
2022/03/20 10:04:08;;;;;;;19.27;11.40;;;;;;;12.11;31.25;102831.97;5055984;28;20040;-91
2022/03/20 10:06:38;;;;;;;19.43;11.93;;;;;;;11.96;31.32;102815.91;5042830;28;20055;-91
2022/03/20 10:09:11;;;;;;;22.50;11.55;;;;;;;12.05;31.54;102813.72;5075930;28;20047;-93
2022/03/20 10:11:52;;;;;;;22.67;12.00;;;;;;;12.29;31.66;102811.84;5058908;28;20040;-91
2022/03/20 10:14:23;;;;;;;19.58;11.60;;;;;;;12.43;31.38;102806.13;5044338;28;20807;-91
2022/03/20 10:17:14;;;;;;;19.05;12.05;;;;;;;12.52;31.78;102810.22;5042252;28;20039;-91
2022/03/20 10:19:42;;;;;;;19.75;11.15;;;;;;;12.56;30.84;102811.38;5058509;28;20044;-91
2022/03/20 10:22:14;;;;;;;18.90;11.38;;;;;;;12.71;31.13;102815.59;5045250;28;20059;-91
2022/03/20 10:24:51;;;;;;;20.92;11.98;;;;;;;12.78;30.89;102810.78;5044851;28;20051;-90
2022/03/20 10:27:19;;;;;;;18.52;11.43;;;;;;;12.72;30.20;102812.56;5030125;28;20514;-91
2022/03/20 10:29:54;;;;;;;18.48;11.90;;;;;;;12.70;31.40;102805.66;5057770;28;20588;-91
2022/03/20 10:32:24;;;;;;;22.67;11.75;;;;;;;12.80;31.05;102796.81;5058836;28;20522;-90
2022/03/20 10:34:58;;;;;;;24.98;12.30;;;;;;;12.91;30.54;102820.69;5059936;28;20512;-90
2022/03/20 10:37:55;;;;;;;20.25;11.60;;;;;;;12.63;30.14;102808.53;5058489;28;20048;-90
2022/03/20 10:40:28;;;;;;;18.30;11.07;;;;;;;12.75;30.54;102805.75;5030597;28;20047;-90
2022/03/20 10:43:14;;;;;;;18.38;11.10;;;;;;;12.63;29.96;102797.53;5042011;28;20051;-91
2022/03/20 10:46:00;;;;;;;19.00;11.27;;;;;;;12.83;30.37;102815.56;5058969;28;20418;-91
2022/03/20 10:48:40;;;;;;;16.23;11.20;;;;;;;12.77;30.21;102800.88;5038527;28;20055;-92
2022/03/20 10:51:09;;;;;;;18.73;11.10;;;;;;;12.81;30.41;102802.06;5037608;28;20048;-90
2022/03/20 10:53:54;;;;;;;17.92;11.57;;;;;;;13.02;30.91;102802.50;5038998;28;20060;-91
2022/03/20 10:56:22;;;;;;;17.48;11.57;;;;;;;13.01;30.20;102795.34;5041610;28;20052;-91
2022/03/20 10:58:50;;;;;;;18.30;11.98;;;;;;;13.07;30.32;102788.03;5028495;28;20040;-91
2022/03/20 11:01:37;;;;;;;21.10;12.45;;;;;;;13.23;30.17;102797.44;5058705;28;20044;-91
2022/03/20 11:04:07;;;;;;;19.50;11.93;;;;;;;13.20;30.13;102811.69;5038546;28;20052;-90
2022/03/20 11:06:36;;;;;;;17.35;12.07;;;;;;;13.30;28.96;102801.72;5042165;28;20411;-92
2022/03/20 11:09:04;;;;;;;19.10;12.32;;;;;;;13.21;29.67;102805.09;5045152;28;20047;-92
2022/03/20 11:11:33;;;;;;;20.17;12.20;;;;;;;13.27;30.31;102809.63;5058497;28;20044;-90
2022/03/20 11:14:04;;;;;;;19.67;11.98;;;;;;;13.55;30.19;102805.25;5058640;28;20063;-92
2022/03/20 11:16:38;;;;;;;20.30;11.88;;;;;;;13.56;29.47;102791.28;5041704;28;20122;-92
2022/03/20 11:19:10;;;;;;;18.42;11.88;;;;;;;13.69;29.58;102789.28;5051979;28;20399;-92
2022/03/20 11:21:44;;;;;;;18.95;11.95;;;;;;;13.62;30.36;102781.19;5040779;28;20495;-92
2022/03/20 11:24:16;;;;;;;19.25;11.70;;;;;;;13.67;29.89;102784.03;5057736;28;20059;-91
2022/03/20 11:26:48;;;;;;;18.05;11.82;;;;;;;13.59;29.38;102778.91;5037319;28;20056;-92
2022/03/20 11:29:20;;;;;;;23.15;12.60;;;;;;;13.62;29.13;102781.19;5075043;28;20036;-91
2022/03/20 11:31:49;;;;;;;22.02;12.48;;;;;;;13.65;29.50;102766.09;5053256;28;20052;-92
2022/03/20 11:34:17;;;;;;;16.30;11.32;;;;;;;13.54;29.08;102773.34;5050901;28;20051;-92
2022/03/20 11:37:02;;;;;;;23.30;12.88;;;;;;;13.75;29.83;102773.69;5037724;28;20052;-90
2022/03/20 11:39:31;;;;;;;19.80;11.57;;;;;;;13.58;28.60;102758.00;5037925;28;20051;-92
2022/03/20 11:42:22;;;;;;;18.33;11.63;;;;;;;13.76;28.87;102761.59;5048387;28;20044;-90
2022/03/20 11:44:59;;;;;;;20.20;12.68;;;;;;;13.72;28.84;102774.22;5044899;28;20055;-90
2022/03/20 11:47:29;;;;;;;21.30;12.00;;;;;;;13.72;27.53;102760.44;5045064;28;20047;-92
2022/03/20 11:50:15;;;;;;;17.88;11.27;;;;;;;13.94;28.71;102752.28;5078299;28;20479;-91
2022/03/20 11:53:04;;;;;;;18.13;11.35;;;;;;;14.09;28.24;102759.97;5084718;28;20371;-91
2022/03/20 11:55:48;;;;;;;19.85;11.75;;;;;;;14.02;27.32;102749.13;5064939;28;20047;-93
2022/03/20 11:58:16;;;;;;;18.67;11.52;;;;;;;14.18;28.08;102741.94;5044810;28;20399;-92
2022/03/20 12:00:45;;;;;;;18.38;11.75;;;;;;;14.34;27.71;102742.19;5044714;28;20059;-93